sensor_id;sensor_type;location;lat;lon;timestamp;temperature;humidity
19880;DHT22;10102;50.828;4.416;2023-05-02T00:00:12;14.20;99.90
19880;DHT22;10102;50.828;4.416;2023-05-02T00:02:38;14.30;99.90
19880;DHT22;10102;50.828;4.416;2023-05-02T00:05:05;14.80;99.90
19880;DHT22;10102;50.828;4.416;2023-05-02T00:07:32;14.40;99.90
19880;DHT22;10102;50.828;4.416;2023-05-02T00:09:58;14.30;99.90
19880;DHT22;10102;50.828;4.416;2023-05-02T00:12:26;14.50;99.90
19880;DHT22;10102;50.828;4.416;2023-05-02T00:14:52;14.40;99.90
19880;DHT22;10102;50.828;4.416;2023-05-02T00:17:19;14.50;99.90
19880;DHT22;10102;50.828;4.416;2023-05-02T00:19:45;14.50;99.90
19880;DHT22;10102;50.828;4.416;2023-05-02T00:22:11;14.30;99.90
19880;DHT22;10102;50.828;4.416;2023-05-02T00:24:37;14.30;99.90
19880;DHT22;10102;50.828;4.416;2023-05-02T00:27:03;14.20;99.90
19880;DHT22;10102;50.828;4.416;2023-05-02T00:29:29;14.20;99.90
19880;DHT22;10102;50.828;4.416;2023-05-02T00:31:56;14.30;99.90
19880;DHT22;10102;50.828;4.416;2023-05-02T00:34:23;14.30;99.90
19880;DHT22;10102;50.828;4.416;2023-05-02T00:36:49;14.30;99.90
19880;DHT22;10102;50.828;4.416;2023-05-02T00:39:14;14.40;99.90
19880;DHT22;10102;50.828;4.416;2023-05-02T00:41:40;14.40;99.90
19880;DHT22;10102;50.828;4.416;2023-05-02T00:44:06;14.10;99.90
19880;DHT22;10102;50.828;4.416;2023-05-02T00:46:33;14.40;99.90
19880;DHT22;10102;50.828;4.416;2023-05-02T00:49:00;14.40;99.90
19880;DHT22;10102;50.828;4.416;2023-05-02T00:51:26;14.20;99.90
19880;DHT22;10102;50.828;4.416;2023-05-02T00:53:52;14.30;99.90
19880;DHT22;10102;50.828;4.416;2023-05-02T00:56:18;14.30;99.90
19880;DHT22;10102;50.828;4.416;2023-05-02T00:58:44;14.20;99.90
19880;DHT22;10102;50.828;4.416;2023-05-02T01:12:25;14.60;99.90
19880;DHT22;10102;50.828;4.416;2023-05-02T01:14:54;14.00;99.90
19880;DHT22;10102;50.828;4.416;2023-05-02T01:17:25;13.80;99.90
19880;DHT22;10102;50.828;4.416;2023-05-02T01:20:06;13.90;99.90
19880;DHT22;10102;50.828;4.416;2023-05-02T01:22:33;14.00;99.90
19880;DHT22;10102;50.828;4.416;2023-05-02T01:25:13;13.90;99.90
19880;DHT22;10102;50.828;4.416;2023-05-02T01:30:47;13.80;99.90
19880;DHT22;10102;50.828;4.416;2023-05-02T01:33:16;13.80;99.90
19880;DHT22;10102;50.828;4.416;2023-05-02T01:35:45;13.70;99.90
19880;DHT22;10102;50.828;4.416;2023-05-02T01:38:14;13.70;99.90
19880;DHT22;10102;50.828;4.416;2023-05-02T01:40:44;13.90;99.90
19880;DHT22;10102;50.828;4.416;2023-05-02T01:43:13;13.80;99.90
19880;DHT22;10102;50.828;4.416;2023-05-02T01:45:48;13.80;99.90
19880;DHT22;10102;50.828;4.416;2023-05-02T01:48:15;14.20;99.90
19880;DHT22;10102;50.828;4.416;2023-05-02T01:50:43;13.80;99.90
19880;DHT22;10102;50.828;4.416;2023-05-02T01:53:10;13.90;99.90
19880;DHT22;10102;50.828;4.416;2023-05-02T01:55:40;13.80;99.90
19880;DHT22;10102;50.828;4.416;2023-05-02T01:58:08;13.60;99.90
19880;DHT22;10102;50.828;4.416;2023-05-02T02:00:35;13.70;99.90
19880;DHT22;10102;50.828;4.416;2023-05-02T02:03:03;13.90;99.90
19880;DHT22;10102;50.828;4.416;2023-05-02T02:05:30;13.70;99.90
19880;DHT22;10102;50.828;4.416;2023-05-02T02:07:56;13.90;99.90
19880;DHT22;10102;50.828;4.416;2023-05-02T02:10:25;13.90;99.90
19880;DHT22;10102;50.828;4.416;2023-05-02T02:13:17;13.70;99.90
19880;DHT22;10102;50.828;4.416;2023-05-02T02:15:46;13.80;99.90
19880;DHT22;10102;50.828;4.416;2023-05-02T02:18:18;13.90;99.90
19880;DHT22;10102;50.828;4.416;2023-05-02T02:20:46;13.80;99.90
19880;DHT22;10102;50.828;4.416;2023-05-02T02:23:14;13.80;99.90
19880;DHT22;10102;50.828;4.416;2023-05-02T02:25:41;13.80;99.90
19880;DHT22;10102;50.828;4.416;2023-05-02T02:28:08;13.70;99.90
19880;DHT22;10102;50.828;4.416;2023-05-02T02:30:33;13.60;99.90
19880;DHT22;10102;50.828;4.416;2023-05-02T02:32:59;13.70;99.90
19880;DHT22;10102;50.828;4.416;2023-05-02T02:35:32;13.80;99.90
19880;DHT22;10102;50.828;4.416;2023-05-02T02:51:57;13.50;99.90
19880;DHT22;10102;50.828;4.416;2023-05-02T02:54:45;13.10;99.90
19880;DHT22;10102;50.828;4.416;2023-05-02T02:57:16;13.40;99.90
19880;DHT22;10102;50.828;4.416;2023-05-02T03:00:00;13.40;99.90
19880;DHT22;10102;50.828;4.416;2023-05-02T03:02:31;13.30;99.90
19880;DHT22;10102;50.828;4.416;2023-05-02T03:04:57;13.30;99.90
19880;DHT22;10102;50.828;4.416;2023-05-02T03:07:27;13.40;99.90
19880;DHT22;10102;50.828;4.416;2023-05-02T03:09:53;13.50;99.90
19880;DHT22;10102;50.828;4.416;2023-05-02T03:12:18;13.60;99.90
19880;DHT22;10102;50.828;4.416;2023-05-02T03:14:44;13.60;99.90
19880;DHT22;10102;50.828;4.416;2023-05-02T03:17:10;13.60;99.90
19880;DHT22;10102;50.828;4.416;2023-05-02T03:19:36;13.30;99.90
19880;DHT22;10102;50.828;4.416;2023-05-02T03:22:02;13.60;99.90
19880;DHT22;10102;50.828;4.416;2023-05-02T03:24:28;13.40;99.90
19880;DHT22;10102;50.828;4.416;2023-05-02T03:26:57;13.40;99.90
19880;DHT22;10102;50.828;4.416;2023-05-02T03:29:24;13.60;99.90
19880;DHT22;10102;50.828;4.416;2023-05-02T03:31:50;13.50;99.90
19880;DHT22;10102;50.828;4.416;2023-05-02T03:34:16;13.20;99.90
19880;DHT22;10102;50.828;4.416;2023-05-02T03:36:44;13.30;99.90
19880;DHT22;10102;50.828;4.416;2023-05-02T03:39:09;13.20;99.90
19880;DHT22;10102;50.828;4.416;2023-05-02T03:41:35;13.00;99.90
19880;DHT22;10102;50.828;4.416;2023-05-02T03:44:01;13.10;99.90
19880;DHT22;10102;50.828;4.416;2023-05-02T03:46:26;13.10;99.90
19880;DHT22;10102;50.828;4.416;2023-05-02T03:48:52;13.00;99.90
19880;DHT22;10102;50.828;4.416;2023-05-02T03:51:18;13.00;99.90
19880;DHT22;10102;50.828;4.416;2023-05-02T03:53:44;13.00;99.90
19880;DHT22;10102;50.828;4.416;2023-05-02T03:56:10;12.80;99.90
19880;DHT22;10102;50.828;4.416;2023-05-02T03:58:36;12.90;99.90
19880;DHT22;10102;50.828;4.416;2023-05-02T04:01:03;12.90;99.90
19880;DHT22;10102;50.828;4.416;2023-05-02T04:03:28;12.90;99.90
19880;DHT22;10102;50.828;4.416;2023-05-02T04:05:56;12.80;99.90
19880;DHT22;10102;50.828;4.416;2023-05-02T04:08:21;12.80;99.90
19880;DHT22;10102;50.828;4.416;2023-05-02T04:10:50;12.80;99.90
19880;DHT22;10102;50.828;4.416;2023-05-02T04:13:17;12.80;99.90
19880;DHT22;10102;50.828;4.416;2023-05-02T04:15:44;12.90;99.90
19880;DHT22;10102;50.828;4.416;2023-05-02T04:18:11;12.90;99.90
19880;DHT22;10102;50.828;4.416;2023-05-02T04:20:36;12.90;99.90
19880;DHT22;10102;50.828;4.416;2023-05-02T04:23:02;13.10;99.90
19880;DHT22;10102;50.828;4.416;2023-05-02T04:25:28;13.00;99.90
19880;DHT22;10102;50.828;4.416;2023-05-02T04:27:53;13.10;99.90
19880;DHT22;10102;50.828;4.416;2023-05-02T04:30:19;13.10;99.90
19880;DHT22;10102;50.828;4.416;2023-05-02T04:32:46;13.00;99.90
19880;DHT22;10102;50.828;4.416;2023-05-02T04:35:11;13.00;99.90
19880;DHT22;10102;50.828;4.416;2023-05-02T04:37:37;13.10;99.90
19880;DHT22;10102;50.828;4.416;2023-05-02T04:40:03;13.00;99.90
19880;DHT22;10102;50.828;4.416;2023-05-02T04:42:29;13.10;99.90
19880;DHT22;10102;50.828;4.416;2023-05-02T04:52:16;13.10;99.90
19880;DHT22;10102;50.828;4.416;2023-05-02T04:54:43;13.20;99.90
19880;DHT22;10102;50.828;4.416;2023-05-02T04:59:36;13.20;99.90
19880;DHT22;10102;50.828;4.416;2023-05-02T05:02:02;13.10;99.90
19880;DHT22;10102;50.828;4.416;2023-05-02T05:04:28;13.20;99.90
19880;DHT22;10102;50.828;4.416;2023-05-02T05:06:54;13.20;99.90
19880;DHT22;10102;50.828;4.416;2023-05-02T05:09:20;13.30;99.90
19880;DHT22;10102;50.828;4.416;2023-05-02T05:11:46;13.30;99.90
19880;DHT22;10102;50.828;4.416;2023-05-02T05:14:12;13.30;99.90
19880;DHT22;10102;50.828;4.416;2023-05-02T05:19:04;13.10;99.90
19880;DHT22;10102;50.828;4.416;2023-05-02T05:21:29;13.50;99.90
19880;DHT22;10102;50.828;4.416;2023-05-02T05:23:55;13.30;99.90
19880;DHT22;10102;50.828;4.416;2023-05-02T05:26:21;13.30;99.90
19880;DHT22;10102;50.828;4.416;2023-05-02T05:28:48;13.20;99.90
19880;DHT22;10102;50.828;4.416;2023-05-02T05:31:15;13.30;99.90
19880;DHT22;10102;50.828;4.416;2023-05-02T05:36:12;13.30;99.90
19880;DHT22;10102;50.828;4.416;2023-05-02T05:38:41;13.40;99.90
19880;DHT22;10102;50.828;4.416;2023-05-02T05:41:08;13.40;99.90
19880;DHT22;10102;50.828;4.416;2023-05-02T05:43:34;13.60;99.90
19880;DHT22;10102;50.828;4.416;2023-05-02T05:45:59;13.70;99.90
19880;DHT22;10102;50.828;4.416;2023-05-02T05:50:51;13.30;99.90
19880;DHT22;10102;50.828;4.416;2023-05-02T05:53:18;13.60;99.90
19880;DHT22;10102;50.828;4.416;2023-05-02T05:55:44;13.20;99.90
19880;DHT22;10102;50.828;4.416;2023-05-02T05:58:10;13.60;99.90
19880;DHT22;10102;50.828;4.416;2023-05-02T06:00:37;13.60;99.90
19880;DHT22;10102;50.828;4.416;2023-05-02T06:03:03;14.10;99.90
19880;DHT22;10102;50.828;4.416;2023-05-02T06:05:29;13.60;99.90
19880;DHT22;10102;50.828;4.416;2023-05-02T06:07:56;13.70;99.90
19880;DHT22;10102;50.828;4.416;2023-05-02T06:10:22;13.70;99.90
19880;DHT22;10102;50.828;4.416;2023-05-02T06:12:48;13.50;99.90
19880;DHT22;10102;50.828;4.416;2023-05-02T06:15:14;13.40;99.90
19880;DHT22;10102;50.828;4.416;2023-05-02T06:17:39;13.70;99.90
19880;DHT22;10102;50.828;4.416;2023-05-02T06:20:06;13.70;99.90
19880;DHT22;10102;50.828;4.416;2023-05-02T06:22:32;13.50;99.90
19880;DHT22;10102;50.828;4.416;2023-05-02T06:24:58;13.40;99.90
19880;DHT22;10102;50.828;4.416;2023-05-02T06:27:23;13.60;99.90
19880;DHT22;10102;50.828;4.416;2023-05-02T06:29:52;13.60;99.90
19880;DHT22;10102;50.828;4.416;2023-05-02T06:32:18;13.70;99.90
19880;DHT22;10102;50.828;4.416;2023-05-02T06:34:44;13.70;99.90
19880;DHT22;10102;50.828;4.416;2023-05-02T06:37:10;13.80;99.90
19880;DHT22;10102;50.828;4.416;2023-05-02T06:39:36;14.30;99.90
19880;DHT22;10102;50.828;4.416;2023-05-02T06:42:02;13.90;99.90
19880;DHT22;10102;50.828;4.416;2023-05-02T06:44:28;14.00;99.90
19880;DHT22;10102;50.828;4.416;2023-05-02T06:49:21;13.80;99.90
19880;DHT22;10102;50.828;4.416;2023-05-02T06:51:47;13.80;99.90
19880;DHT22;10102;50.828;4.416;2023-05-02T06:54:13;13.80;99.90
19880;DHT22;10102;50.828;4.416;2023-05-02T06:56:42;13.60;99.90
19880;DHT22;10102;50.828;4.416;2023-05-02T06:59:07;13.80;99.90
19880;DHT22;10102;50.828;4.416;2023-05-02T07:01:33;14.20;99.90
19880;DHT22;10102;50.828;4.416;2023-05-02T07:04:00;14.40;99.90
19880;DHT22;10102;50.828;4.416;2023-05-02T07:06:28;14.60;99.90
19880;DHT22;10102;50.828;4.416;2023-05-02T07:08:55;14.70;99.90
19880;DHT22;10102;50.828;4.416;2023-05-02T07:11:21;14.90;99.90
19880;DHT22;10102;50.828;4.416;2023-05-02T07:13:48;15.00;99.90
19880;DHT22;10102;50.828;4.416;2023-05-02T07:16:14;15.00;99.90
19880;DHT22;10102;50.828;4.416;2023-05-02T07:18:42;14.80;99.90
19880;DHT22;10102;50.828;4.416;2023-05-02T07:21:10;15.00;99.90
19880;DHT22;10102;50.828;4.416;2023-05-02T07:26:02;15.10;99.90
19880;DHT22;10102;50.828;4.416;2023-05-02T07:28:27;15.30;99.90
19880;DHT22;10102;50.828;4.416;2023-05-02T07:30:54;15.40;99.90
19880;DHT22;10102;50.828;4.416;2023-05-02T07:33:19;15.70;99.90
19880;DHT22;10102;50.828;4.416;2023-05-02T07:35:45;15.50;99.90
19880;DHT22;10102;50.828;4.416;2023-05-02T07:38:11;15.50;99.90
19880;DHT22;10102;50.828;4.416;2023-05-02T07:43:03;15.40;99.90
19880;DHT22;10102;50.828;4.416;2023-05-02T07:45:28;15.10;99.90
19880;DHT22;10102;50.828;4.416;2023-05-02T07:47:54;15.30;99.90
19880;DHT22;10102;50.828;4.416;2023-05-02T07:50:20;15.30;99.90
19880;DHT22;10102;50.828;4.416;2023-05-02T07:52:46;15.40;99.90
19880;DHT22;10102;50.828;4.416;2023-05-02T07:55:11;15.40;99.90
19880;DHT22;10102;50.828;4.416;2023-05-02T07:57:37;15.50;99.90
19880;DHT22;10102;50.828;4.416;2023-05-02T08:00:04;15.50;99.90
19880;DHT22;10102;50.828;4.416;2023-05-02T08:02:33;15.60;99.90
19880;DHT22;10102;50.828;4.416;2023-05-02T08:05:01;15.80;99.90
19880;DHT22;10102;50.828;4.416;2023-05-02T08:07:27;15.90;99.90
19880;DHT22;10102;50.828;4.416;2023-05-02T08:12:19;16.20;99.90
19880;DHT22;10102;50.828;4.416;2023-05-02T08:14:45;16.30;99.90
19880;DHT22;10102;50.828;4.416;2023-05-02T08:17:11;16.50;99.90
19880;DHT22;10102;50.828;4.416;2023-05-02T08:19:36;16.50;99.90
19880;DHT22;10102;50.828;4.416;2023-05-02T08:22:02;16.50;99.90
19880;DHT22;10102;50.828;4.416;2023-05-02T08:24:28;16.60;99.90
19880;DHT22;10102;50.828;4.416;2023-05-02T08:26:55;16.70;99.90
19880;DHT22;10102;50.828;4.416;2023-05-02T08:29:22;16.80;99.90
19880;DHT22;10102;50.828;4.416;2023-05-02T08:31:48;16.80;99.90
19880;DHT22;10102;50.828;4.416;2023-05-02T08:34:14;16.90;99.90
19880;DHT22;10102;50.828;4.416;2023-05-02T08:36:40;17.20;99.90
19880;DHT22;10102;50.828;4.416;2023-05-02T08:39:05;17.00;99.90
19880;DHT22;10102;50.828;4.416;2023-05-02T08:41:35;17.10;99.90
19880;DHT22;10102;50.828;4.416;2023-05-02T08:44:01;17.10;99.90
19880;DHT22;10102;50.828;4.416;2023-05-02T08:46:28;16.60;99.90
19880;DHT22;10102;50.828;4.416;2023-05-02T08:48:56;16.70;99.90
19880;DHT22;10102;50.828;4.416;2023-05-02T08:51:23;16.60;99.90
19880;DHT22;10102;50.828;4.416;2023-05-02T08:53:49;16.80;99.90
19880;DHT22;10102;50.828;4.416;2023-05-02T08:56:16;16.90;99.90
19880;DHT22;10102;50.828;4.416;2023-05-02T08:58:42;17.30;99.90
19880;DHT22;10102;50.828;4.416;2023-05-02T09:01:15;17.10;99.90
19880;DHT22;10102;50.828;4.416;2023-05-02T09:03:45;17.20;99.90
19880;DHT22;10102;50.828;4.416;2023-05-02T09:06:14;17.30;99.90
19880;DHT22;10102;50.828;4.416;2023-05-02T09:08:41;17.60;99.90
19880;DHT22;10102;50.828;4.416;2023-05-02T09:11:09;17.70;99.90
19880;DHT22;10102;50.828;4.416;2023-05-02T09:13:37;17.60;99.90
19880;DHT22;10102;50.828;4.416;2023-05-02T09:16:08;18.10;99.90
19880;DHT22;10102;50.828;4.416;2023-05-02T09:18:36;18.50;99.90
19880;DHT22;10102;50.828;4.416;2023-05-02T09:21:07;18.40;99.90
19880;DHT22;10102;50.828;4.416;2023-05-02T09:23:47;18.50;99.90
19880;DHT22;10102;50.828;4.416;2023-05-02T09:26:24;18.40;99.90
19880;DHT22;10102;50.828;4.416;2023-05-02T09:28:56;18.50;99.90
19880;DHT22;10102;50.828;4.416;2023-05-02T09:31:24;18.10;99.90
19880;DHT22;10102;50.828;4.416;2023-05-02T09:33:50;18.10;99.90
19880;DHT22;10102;50.828;4.416;2023-05-02T09:36:18;18.40;99.90
19880;DHT22;10102;50.828;4.416;2023-05-02T09:38:46;18.50;99.90
19880;DHT22;10102;50.828;4.416;2023-05-02T09:41:12;18.90;99.90
19880;DHT22;10102;50.828;4.416;2023-05-02T09:43:38;18.80;99.90
19880;DHT22;10102;50.828;4.416;2023-05-02T09:46:09;19.30;99.90
19880;DHT22;10102;50.828;4.416;2023-05-02T09:48:54;19.50;99.90
19880;DHT22;10102;50.828;4.416;2023-05-02T09:51:24;19.80;99.90
19880;DHT22;10102;50.828;4.416;2023-05-02T09:53:50;19.80;99.90
19880;DHT22;10102;50.828;4.416;2023-05-02T09:56:17;19.70;99.90
19880;DHT22;10102;50.828;4.416;2023-05-02T09:58:43;19.70;99.90
19880;DHT22;10102;50.828;4.416;2023-05-02T10:01:17;20.40;99.90
19880;DHT22;10102;50.828;4.416;2023-05-02T10:03:46;19.90;99.90
19880;DHT22;10102;50.828;4.416;2023-05-02T10:06:12;19.90;99.90
19880;DHT22;10102;50.828;4.416;2023-05-02T10:08:41;19.90;99.90
19880;DHT22;10102;50.828;4.416;2023-05-02T10:11:07;20.00;99.90
19880;DHT22;10102;50.828;4.416;2023-05-02T10:13:36;20.30;99.90
19880;DHT22;10102;50.828;4.416;2023-05-02T10:16:04;20.10;99.90
19880;DHT22;10102;50.828;4.416;2023-05-02T10:18:41;20.20;99.90
19880;DHT22;10102;50.828;4.416;2023-05-02T10:21:10;20.20;99.90
19880;DHT22;10102;50.828;4.416;2023-05-02T10:23:40;20.70;99.90
19880;DHT22;10102;50.828;4.416;2023-05-02T10:26:07;20.40;99.90
19880;DHT22;10102;50.828;4.416;2023-05-02T10:28:33;20.50;99.90
19880;DHT22;10102;50.828;4.416;2023-05-02T10:31:00;19.90;99.90
19880;DHT22;10102;50.828;4.416;2023-05-02T10:33:27;19.90;99.90
19880;DHT22;10102;50.828;4.416;2023-05-02T10:35:56;20.10;99.90
19880;DHT22;10102;50.828;4.416;2023-05-02T10:38:22;20.00;99.90
19880;DHT22;10102;50.828;4.416;2023-05-02T10:40:53;20.00;99.90
19880;DHT22;10102;50.828;4.416;2023-05-02T10:43:25;19.80;99.90
19880;DHT22;10102;50.828;4.416;2023-05-02T10:45:52;20.20;99.90
19880;DHT22;10102;50.828;4.416;2023-05-02T10:48:19;20.10;99.90
19880;DHT22;10102;50.828;4.416;2023-05-02T10:50:51;20.20;99.90
19880;DHT22;10102;50.828;4.416;2023-05-02T10:53:32;20.60;99.90
19880;DHT22;10102;50.828;4.416;2023-05-02T10:56:18;21.20;99.90
19880;DHT22;10102;50.828;4.416;2023-05-02T10:58:49;21.10;99.90
19880;DHT22;10102;50.828;4.416;2023-05-02T11:06:18;21.20;99.90
19880;DHT22;10102;50.828;4.416;2023-05-02T11:08:44;21.40;99.90
19880;DHT22;10102;50.828;4.416;2023-05-02T11:11:40;21.90;99.90
19880;DHT22;10102;50.828;4.416;2023-05-02T11:14:07;21.80;99.90
19880;DHT22;10102;50.828;4.416;2023-05-02T11:19:24;21.30;99.90
19880;DHT22;10102;50.828;4.416;2023-05-02T11:21:50;21.50;99.90
19880;DHT22;10102;50.828;4.416;2023-05-02T11:24:41;24.10;99.90
19880;DHT22;10102;50.828;4.416;2023-05-02T11:37:55;26.50;97.30
19880;DHT22;10102;50.828;4.416;2023-05-02T11:40:22;26.80;96.60
19880;DHT22;10102;50.828;4.416;2023-05-02T11:42:48;28.10;94.70
19880;DHT22;10102;50.828;4.416;2023-05-02T11:45:13;28.60;92.70
19880;DHT22;10102;50.828;4.416;2023-05-02T11:47:41;27.70;91.80
19880;DHT22;10102;50.828;4.416;2023-05-02T11:50:07;27.20;93.20
19880;DHT22;10102;50.828;4.416;2023-05-02T11:52:40;28.40;91.50
19880;DHT22;10102;50.828;4.416;2023-05-02T11:55:09;29.50;89.00
19880;DHT22;10102;50.828;4.416;2023-05-02T11:57:36;29.40;88.40
19880;DHT22;10102;50.828;4.416;2023-05-02T12:00:02;27.80;89.00
19880;DHT22;10102;50.828;4.416;2023-05-02T12:02:57;26.70;89.90
19880;DHT22;10102;50.828;4.416;2023-05-02T12:05:27;25.50;91.30
19880;DHT22;10102;50.828;4.416;2023-05-02T12:07:57;25.20;92.80
19880;DHT22;10102;50.828;4.416;2023-05-02T12:10:32;27.70;90.40
19880;DHT22;10102;50.828;4.416;2023-05-02T12:13:03;30.30;85.30
19880;DHT22;10102;50.828;4.416;2023-05-02T12:15:30;31.80;81.60
19880;DHT22;10102;50.828;4.416;2023-05-02T12:17:56;33.10;73.90
19880;DHT22;10102;50.828;4.416;2023-05-02T12:20:22;32.20;73.40
19880;DHT22;10102;50.828;4.416;2023-05-02T12:22:48;30.90;75.60
19880;DHT22;10102;50.828;4.416;2023-05-02T12:25:13;29.40;77.50
19880;DHT22;10102;50.828;4.416;2023-05-02T12:27:39;27.90;80.50
19880;DHT22;10102;50.828;4.416;2023-05-02T12:30:05;26.70;83.20
19880;DHT22;10102;50.828;4.416;2023-05-02T12:32:34;26.60;83.60
19880;DHT22;10102;50.828;4.416;2023-05-02T12:35:02;26.20;84.60
19880;DHT22;10102;50.828;4.416;2023-05-02T12:37:28;24.80;96.40
19880;DHT22;10102;50.828;4.416;2023-05-02T12:39:55;24.80;88.60
19880;DHT22;10102;50.828;4.416;2023-05-02T12:42:23;24.60;89.20
19880;DHT22;10102;50.828;4.416;2023-05-02T12:44:50;24.30;90.00
19880;DHT22;10102;50.828;4.416;2023-05-02T12:47:21;23.80;90.10
19880;DHT22;10102;50.828;4.416;2023-05-02T12:49:57;23.20;90.40
19880;DHT22;10102;50.828;4.416;2023-05-02T12:55:18;23.80;87.60
19880;DHT22;10102;50.828;4.416;2023-05-02T12:57:44;24.00;87.20
19880;DHT22;10102;50.828;4.416;2023-05-02T13:00:10;26.60;82.70
19880;DHT22;10102;50.828;4.416;2023-05-02T13:02:36;31.50;86.80
19880;DHT22;10102;50.828;4.416;2023-05-02T13:05:21;31.90;73.10
19880;DHT22;10102;50.828;4.416;2023-05-02T13:07:46;35.40;66.60
19880;DHT22;10102;50.828;4.416;2023-05-02T13:10:12;37.40;59.50
19880;DHT22;10102;50.828;4.416;2023-05-02T13:12:38;37.80;55.70
19880;DHT22;10102;50.828;4.416;2023-05-02T13:15:06;39.20;53.20
19880;DHT22;10102;50.828;4.416;2023-05-02T13:17:32;39.40;52.40
19880;DHT22;10102;50.828;4.416;2023-05-02T13:19:58;39.90;49.90
19880;DHT22;10102;50.828;4.416;2023-05-02T13:22:24;38.10;51.30
19880;DHT22;10102;50.828;4.416;2023-05-02T13:24:50;39.70;50.30
19880;DHT22;10102;50.828;4.416;2023-05-02T13:27:16;40.20;48.90
19880;DHT22;10102;50.828;4.416;2023-05-02T13:29:43;40.10;48.50
19880;DHT22;10102;50.828;4.416;2023-05-02T13:32:09;40.40;47.00
19880;DHT22;10102;50.828;4.416;2023-05-02T13:34:35;40.60;47.00
19880;DHT22;10102;50.828;4.416;2023-05-02T13:37:01;40.30;46.40
19880;DHT22;10102;50.828;4.416;2023-05-02T13:39:26;39.30;46.60
19880;DHT22;10102;50.828;4.416;2023-05-02T13:41:52;39.60;47.10
19880;DHT22;10102;50.828;4.416;2023-05-02T13:44:17;39.40;46.50
19880;DHT22;10102;50.828;4.416;2023-05-02T13:46:43;39.90;46.40
19880;DHT22;10102;50.828;4.416;2023-05-02T13:49:09;41.40;45.90
19880;DHT22;10102;50.828;4.416;2023-05-02T13:51:34;41.60;44.30
19880;DHT22;10102;50.828;4.416;2023-05-02T13:54:01;42.00;43.10
19880;DHT22;10102;50.828;4.416;2023-05-02T13:56:27;41.80;43.40
19880;DHT22;10102;50.828;4.416;2023-05-02T13:58:52;41.40;42.50
19880;DHT22;10102;50.828;4.416;2023-05-02T14:01:18;41.70;42.80
19880;DHT22;10102;50.828;4.416;2023-05-02T14:03:44;41.40;42.70
19880;DHT22;10102;50.828;4.416;2023-05-02T14:06:10;41.00;43.60
19880;DHT22;10102;50.828;4.416;2023-05-02T14:08:35;41.20;43.40
19880;DHT22;10102;50.828;4.416;2023-05-02T14:11:01;42.10;43.20
19880;DHT22;10102;50.828;4.416;2023-05-02T14:13:27;42.10;42.50
19880;DHT22;10102;50.828;4.416;2023-05-02T14:15:53;42.70;42.20
19880;DHT22;10102;50.828;4.416;2023-05-02T14:18:19;42.80;41.70
19880;DHT22;10102;50.828;4.416;2023-05-02T14:20:45;41.10;41.60
19880;DHT22;10102;50.828;4.416;2023-05-02T14:23:11;38.60;43.70
19880;DHT22;10102;50.828;4.416;2023-05-02T14:25:37;39.00;44.40
19880;DHT22;10102;50.828;4.416;2023-05-02T14:28:03;39.70;51.00
19880;DHT22;10102;50.828;4.416;2023-05-02T14:30:30;39.90;43.70
19880;DHT22;10102;50.828;4.416;2023-05-02T14:32:58;41.80;42.00
19880;DHT22;10102;50.828;4.416;2023-05-02T14:35:24;42.50;41.30
19880;DHT22;10102;50.828;4.416;2023-05-02T14:37:50;41.80;41.10
19880;DHT22;10102;50.828;4.416;2023-05-02T14:40:16;43.20;40.30
19880;DHT22;10102;50.828;4.416;2023-05-02T14:42:42;43.10;39.90
19880;DHT22;10102;50.828;4.416;2023-05-02T14:45:08;43.40;39.50
19880;DHT22;10102;50.828;4.416;2023-05-02T14:47:35;43.50;39.60
19880;DHT22;10102;50.828;4.416;2023-05-02T14:50:04;44.30;39.50
19880;DHT22;10102;50.828;4.416;2023-05-02T14:52:30;44.30;39.20
19880;DHT22;10102;50.828;4.416;2023-05-02T14:55:00;44.20;39.00
19880;DHT22;10102;50.828;4.416;2023-05-02T14:57:26;44.90;39.00
19880;DHT22;10102;50.828;4.416;2023-05-02T14:59:52;44.50;38.90
19880;DHT22;10102;50.828;4.416;2023-05-02T15:02:18;44.50;38.90
19880;DHT22;10102;50.828;4.416;2023-05-02T15:04:44;44.80;38.60
19880;DHT22;10102;50.828;4.416;2023-05-02T15:07:10;45.70;38.90
19880;DHT22;10102;50.828;4.416;2023-05-02T15:09:36;44.60;38.00
19880;DHT22;10102;50.828;4.416;2023-05-02T15:12:01;44.50;38.10
19880;DHT22;10102;50.828;4.416;2023-05-02T15:14:27;43.50;38.90
19880;DHT22;10102;50.828;4.416;2023-05-02T15:16:53;44.20;38.40
19880;DHT22;10102;50.828;4.416;2023-05-02T15:19:19;44.50;37.90
19880;DHT22;10102;50.828;4.416;2023-05-02T15:21:47;44.20;38.20
19880;DHT22;10102;50.828;4.416;2023-05-02T15:24:14;41.80;39.10
19880;DHT22;10102;50.828;4.416;2023-05-02T15:26:40;42.20;38.00
19880;DHT22;10102;50.828;4.416;2023-05-02T15:29:06;40.70;39.50
19880;DHT22;10102;50.828;4.416;2023-05-02T15:31:32;40.40;40.20
19880;DHT22;10102;50.828;4.416;2023-05-02T15:33:58;41.30;40.60
19880;DHT22;10102;50.828;4.416;2023-05-02T15:36:27;41.40;39.30
19880;DHT22;10102;50.828;4.416;2023-05-02T15:38:54;41.20;39.70
19880;DHT22;10102;50.828;4.416;2023-05-02T15:41:20;42.40;39.80
19880;DHT22;10102;50.828;4.416;2023-05-02T15:43:46;42.50;39.50
19880;DHT22;10102;50.828;4.416;2023-05-02T15:46:11;42.80;39.10
19880;DHT22;10102;50.828;4.416;2023-05-02T15:48:37;42.80;38.70
19880;DHT22;10102;50.828;4.416;2023-05-02T15:51:03;42.70;38.90
19880;DHT22;10102;50.828;4.416;2023-05-02T15:53:35;42.10;39.20
19880;DHT22;10102;50.828;4.416;2023-05-02T15:56:07;41.60;39.80
19880;DHT22;10102;50.828;4.416;2023-05-02T15:58:33;41.50;40.40
19880;DHT22;10102;50.828;4.416;2023-05-02T16:00:59;41.40;39.80
19880;DHT22;10102;50.828;4.416;2023-05-02T16:03:25;41.70;39.40
19880;DHT22;10102;50.828;4.416;2023-05-02T16:05:54;41.80;39.60
19880;DHT22;10102;50.828;4.416;2023-05-02T16:08:22;42.00;39.30
19880;DHT22;10102;50.828;4.416;2023-05-02T16:10:48;41.80;38.90
19880;DHT22;10102;50.828;4.416;2023-05-02T16:13:13;41.90;39.00
19880;DHT22;10102;50.828;4.416;2023-05-02T16:15:39;41.70;39.70
19880;DHT22;10102;50.828;4.416;2023-05-02T16:18:05;40.30;39.40
19880;DHT22;10102;50.828;4.416;2023-05-02T16:20:30;39.00;40.90
19880;DHT22;10102;50.828;4.416;2023-05-02T16:23:04;38.60;41.40
19880;DHT22;10102;50.828;4.416;2023-05-02T16:25:30;38.00;41.80
19880;DHT22;10102;50.828;4.416;2023-05-02T16:27:56;38.90;41.70
19880;DHT22;10102;50.828;4.416;2023-05-02T16:30:21;38.80;41.30
19880;DHT22;10102;50.828;4.416;2023-05-02T16:32:47;39.20;41.60
19880;DHT22;10102;50.828;4.416;2023-05-02T16:35:13;38.80;41.40
19880;DHT22;10102;50.828;4.416;2023-05-02T16:37:40;38.20;41.50
19880;DHT22;10102;50.828;4.416;2023-05-02T16:40:09;37.40;41.80
19880;DHT22;10102;50.828;4.416;2023-05-02T16:42:36;37.50;42.00
19880;DHT22;10102;50.828;4.416;2023-05-02T16:45:02;36.60;43.00
19880;DHT22;10102;50.828;4.416;2023-05-02T16:47:28;35.40;43.80